createdAt,value
2018-12-11T00:00:56.172Z,1.54
2018-12-11T00:03:26.657Z,1.53
2018-12-11T00:05:58.027Z,1.59
2018-12-11T00:08:28.148Z,1.59
2018-12-11T00:10:57.999Z,1.62
2018-12-11T00:13:28.012Z,1.69
2018-12-11T00:15:57.964Z,1.64
2018-12-11T00:18:27.808Z,1.74
2018-12-11T00:20:57.697Z,1.66
2018-12-11T00:23:28.287Z,1.73
2018-12-11T00:25:58.181Z,1.70
2018-12-11T00:28:28.114Z,1.64
2018-12-11T00:30:57.998Z,1.65
2018-12-11T00:33:27.933Z,1.67
2018-12-11T00:35:57.825Z,1.70
2018-12-11T00:38:29.188Z,1.65
2018-12-11T00:40:59.094Z,1.73
2018-12-11T00:43:29.180Z,1.72
2018-12-11T00:45:59.124Z,1.75
2018-12-11T00:48:29.120Z,1.65
2018-12-11T00:50:59.026Z,1.70
2018-12-11T00:53:28.962Z,1.68
2018-12-11T00:55:58.860Z,1.73
2018-12-11T00:58:28.726Z,1.72
2018-12-11T01:00:58.539Z,1.68
2018-12-11T01:03:28.532Z,1.77
2018-12-11T01:05:58.412Z,1.76
2018-12-11T01:08:28.354Z,1.70
2018-12-11T01:10:58.346Z,1.76
2018-12-11T01:13:28.380Z,1.82
2018-12-11T01:15:58.248Z,1.80
2018-12-11T01:18:28.315Z,1.71
2018-12-11T01:20:58.164Z,1.73
2018-12-11T01:23:28.139Z,1.79
2018-12-11T01:25:57.969Z,1.83
2018-12-11T01:28:27.866Z,1.79
2018-12-11T01:30:57.712Z,1.79
2018-12-11T01:33:27.548Z,1.79
2018-12-11T01:35:57.506Z,1.85
2018-12-11T01:38:27.376Z,1.89
2018-12-11T01:40:57.246Z,1.82
2018-12-11T01:43:27.266Z,1.81
2018-12-11T01:45:57.138Z,1.84
2018-12-11T01:48:26.992Z,1.85
2018-12-11T01:50:57.390Z,1.86
2018-12-11T01:53:27.305Z,1.86
2018-12-11T01:55:57.200Z,1.93
2018-12-11T01:58:27.109Z,1.90
2018-12-11T02:00:57.367Z,1.80
2018-12-11T02:03:27.192Z,1.81
2018-12-11T02:05:57.005Z,1.81
2018-12-11T02:08:27.175Z,1.75
2018-12-11T02:10:57.595Z,1.83
2018-12-11T02:13:27.417Z,1.87
2018-12-11T02:15:57.246Z,1.83
2018-12-11T02:18:27.097Z,1.92
2018-12-11T02:20:57.528Z,1.91
2018-12-11T02:23:27.949Z,1.93
2018-12-11T02:25:57.857Z,1.94
2018-12-11T02:28:28.112Z,1.94
2018-12-11T02:30:57.958Z,1.82
2018-12-11T02:33:27.791Z,1.82
2018-12-11T02:35:57.746Z,1.87
2018-12-11T02:38:27.947Z,1.86
2018-12-11T02:40:57.903Z,1.79
2018-12-11T02:43:28.372Z,1.80
2018-12-11T02:45:58.206Z,1.73
2018-12-11T02:48:28.612Z,1.83
2018-12-11T02:50:58.442Z,1.78
2018-12-11T02:53:29.309Z,1.74
2018-12-11T02:55:59.121Z,1.72
2018-12-11T02:58:28.961Z,1.72
2018-12-11T03:00:58.794Z,1.78
2018-12-11T03:03:29.428Z,1.82
2018-12-11T03:05:59.279Z,1.80
2018-12-11T03:08:29.102Z,1.79
2018-12-11T03:10:58.918Z,1.83
2018-12-11T03:13:28.724Z,1.84
2018-12-11T03:15:59.098Z,1.77
2018-12-11T03:18:28.928Z,1.83
2018-12-11T03:20:58.845Z,1.85
2018-12-11T03:23:28.679Z,1.86
2018-12-11T03:25:58.518Z,1.82
2018-12-11T03:28:28.370Z,1.80
2018-12-11T03:30:58.227Z,1.80
2018-12-11T03:33:28.153Z,1.87
2018-12-11T03:35:57.975Z,1.89
2018-12-11T03:38:27.797Z,1.91
2018-12-11T03:40:57.944Z,1.88
2018-12-11T03:43:27.828Z,1.75
2018-12-11T03:45:57.700Z,1.78
2018-12-11T03:48:27.765Z,1.78
2018-12-11T03:50:57.593Z,1.82
2018-12-11T03:53:28.081Z,1.88
2018-12-11T03:55:57.997Z,1.85
2018-12-11T03:58:27.861Z,1.84
2018-12-11T04:00:57.871Z,1.75
2018-12-11T04:03:27.691Z,1.77
2018-12-11T04:05:57.601Z,1.76
2018-12-11T04:08:28.336Z,1.83
2018-12-11T04:10:58.173Z,1.78
2018-12-11T04:13:27.984Z,1.83
2018-12-11T04:15:57.848Z,1.84
2018-12-11T04:18:27.720Z,1.86
2018-12-11T04:20:57.514Z,1.89
2018-12-11T04:23:29.634Z,1.95
2018-12-11T04:25:59.529Z,1.93
2018-12-11T04:28:29.386Z,1.92
2018-12-11T04:30:59.248Z,1.94
2018-12-11T04:33:29.066Z,1.88
2018-12-11T04:35:58.901Z,1.76
2018-12-11T04:38:29.373Z,1.81
2018-12-11T04:40:59.174Z,1.87
2018-12-11T04:43:28.985Z,1.91
2018-12-11T04:45:58.825Z,1.85
2018-12-11T04:48:28.643Z,1.83
2018-12-11T04:50:58.517Z,1.79
2018-12-11T04:53:28.345Z,1.74
2018-12-11T04:55:58.275Z,1.79
2018-12-11T04:58:28.084Z,1.73
2018-12-11T05:00:57.946Z,1.80
2018-12-11T05:03:27.777Z,1.76
2018-12-11T05:05:57.624Z,1.81
2018-12-11T05:08:28.391Z,1.77
2018-12-11T05:10:58.212Z,1.85
2018-12-11T05:13:28.194Z,1.85
2018-12-11T05:15:58.144Z,1.84
2018-12-11T05:18:28.533Z,1.88
2018-12-11T05:20:58.375Z,1.86
2018-12-11T05:23:28.277Z,1.83
2018-12-11T05:25:58.152Z,1.70
2018-12-11T05:28:28.571Z,1.72
2018-12-11T05:30:58.476Z,1.77
2018-12-11T05:33:28.285Z,1.74
2018-12-11T05:35:58.151Z,1.76
2018-12-11T05:38:28.030Z,1.73
2018-12-11T05:40:58.278Z,1.70
2018-12-11T05:43:28.105Z,1.71
2018-12-11T05:45:58.106Z,1.76
2018-12-11T05:48:28.002Z,1.77
2018-12-11T05:51:00.694Z,1.79
2018-12-11T05:53:30.548Z,1.75
2018-12-11T05:56:00.399Z,1.78
2018-12-11T05:58:30.277Z,1.74
2018-12-11T06:01:00.166Z,1.69
2018-12-11T06:03:30.147Z,1.77
2018-12-11T06:06:00.046Z,1.75
2018-12-11T06:08:30.078Z,1.83
2018-12-11T06:11:00.006Z,1.81
2018-12-11T06:13:29.933Z,1.79
2018-12-11T06:16:00.673Z,1.80
2018-12-11T06:18:30.483Z,1.79
2018-12-11T06:21:00.373Z,1.81
2018-12-11T06:23:30.338Z,1.84
2018-12-11T06:26:00.232Z,1.91
2018-12-11T06:28:30.060Z,1.88
2018-12-11T06:31:00.512Z,1.90
2018-12-11T06:33:30.483Z,1.84
2018-12-11T06:36:01.095Z,1.86
2018-12-11T06:38:30.955Z,1.92
2018-12-11T06:41:00.892Z,1.90
2018-12-11T06:43:30.820Z,1.94
2018-12-11T06:46:00.722Z,1.94
2018-12-11T06:48:30.656Z,1.90
2018-12-11T06:51:00.567Z,1.94
2018-12-11T06:53:30.382Z,1.97
2018-12-11T06:56:00.296Z,1.97
2018-12-11T06:58:31.212Z,1.92
2018-12-11T07:01:01.110Z,1.84
2018-12-11T07:03:30.938Z,1.65
2018-12-11T07:06:00.850Z,1.60
2018-12-11T07:08:30.726Z,1.63
2018-12-11T07:11:00.649Z,1.66
2018-12-11T07:13:30.537Z,1.69
2018-12-11T07:16:01.480Z,1.72
2018-12-11T07:18:32.219Z,1.71
2018-12-11T07:21:02.079Z,1.68
2018-12-11T07:23:32.368Z,1.73
2018-12-11T07:26:04.207Z,1.78
2018-12-11T07:28:34.053Z,1.76
2018-12-11T07:31:04.503Z,1.72
2018-12-11T07:33:34.363Z,1.68
2018-12-11T07:36:04.181Z,1.61
2018-12-11T07:38:34.741Z,1.62
2018-12-11T07:41:04.862Z,1.47
2018-12-11T07:43:34.744Z,1.54
2018-12-11T07:46:05.515Z,1.50
2018-12-11T07:48:35.982Z,1.56
2018-12-11T07:51:06.010Z,1.54
2018-12-11T07:53:35.829Z,1.54
2018-12-11T07:56:05.684Z,1.51
2018-12-11T07:58:35.584Z,1.55
2018-12-11T08:01:05.457Z,1.54
2018-12-11T08:03:35.331Z,1.51
2018-12-11T08:06:05.343Z,1.45
2018-12-11T08:08:35.329Z,1.53
2018-12-11T08:11:06.103Z,1.54
2018-12-11T08:13:36.557Z,1.60
2018-12-11T08:16:06.969Z,1.71
2018-12-11T08:18:37.454Z,1.79
2018-12-11T08:21:07.480Z,1.90
2018-12-11T08:23:38.001Z,2.01
2018-12-11T08:26:07.939Z,1.92
2018-12-11T08:28:37.834Z,2.00
2018-12-11T08:31:07.928Z,1.93
2018-12-11T08:33:37.744Z,1.88
2018-12-11T08:36:07.605Z,1.90
2018-12-11T08:38:37.465Z,1.93
2018-12-11T08:41:07.455Z,1.97
2018-12-11T08:43:37.457Z,2.01
2018-12-11T08:46:07.627Z,1.94
2018-12-11T08:48:37.704Z,2.03
2018-12-11T08:51:07.754Z,2.02
2018-12-11T08:53:37.851Z,2.06
2018-12-11T08:56:07.862Z,2.08
2018-12-11T08:58:37.862Z,1.99
2018-12-11T09:01:07.985Z,2.08
2018-12-11T09:03:37.959Z,2.14
2018-12-11T09:06:08.061Z,2.18
2018-12-11T09:08:37.973Z,2.10
2018-12-11T09:11:08.066Z,2.12
2018-12-11T09:13:37.899Z,2.11
2018-12-11T09:16:07.917Z,2.09
2018-12-11T09:18:37.738Z,2.18
2018-12-11T09:21:07.680Z,2.09
2018-12-11T09:23:37.895Z,2.16
2018-12-11T09:26:07.748Z,2.17
2018-12-11T09:28:37.643Z,2.14
2018-12-11T09:31:07.470Z,2.24
2018-12-11T09:33:37.388Z,2.22
2018-12-11T09:36:07.366Z,2.18
2018-12-11T09:38:37.310Z,2.33
2018-12-11T09:41:07.237Z,2.29
2018-12-11T09:43:37.173Z,2.29
2018-12-11T09:46:07.046Z,2.26
2018-12-11T09:48:37.203Z,2.28
2018-12-11T09:51:07.900Z,2.35
2018-12-11T09:53:38.260Z,2.52
2018-12-11T09:56:08.112Z,2.60
2018-12-11T09:58:38.054Z,2.63
2018-12-11T10:01:08.361Z,2.61
2018-12-11T10:03:39.945Z,2.65
2018-12-11T10:06:09.958Z,2.68
2018-12-11T10:08:39.862Z,2.69
2018-12-11T10:11:09.856Z,2.71
2018-12-11T10:13:39.816Z,2.54
2018-12-11T10:16:09.666Z,2.69
2018-12-11T10:18:39.523Z,2.69
2018-12-11T10:21:09.396Z,2.70
2018-12-11T10:23:40.256Z,2.68
2018-12-11T10:26:10.297Z,2.68
2018-12-11T10:28:40.160Z,2.64
2018-12-11T10:31:10.243Z,2.82
2018-12-11T10:33:40.347Z,2.84
2018-12-11T10:36:10.497Z,2.73
2018-12-11T10:38:40.559Z,2.90
2018-12-11T10:41:10.533Z,2.87
2018-12-11T10:43:40.473Z,2.78
2018-12-11T10:46:10.410Z,2.79
2018-12-11T10:48:40.281Z,2.90
2018-12-11T10:51:10.222Z,2.73
2018-12-11T10:53:40.066Z,2.79
2018-12-11T10:56:10.436Z,2.76
2018-12-11T10:58:40.264Z,2.87
2018-12-11T11:01:15.394Z,2.77
2018-12-11T11:03:45.420Z,2.61
2018-12-11T11:06:15.343Z,2.77
2018-12-11T11:08:45.176Z,2.85
2018-12-11T11:11:15.175Z,2.98
2018-12-11T11:13:45.157Z,2.89
2018-12-11T11:16:14.996Z,2.83
2018-12-11T11:18:45.611Z,2.96
2018-12-11T11:21:15.541Z,2.67
2018-12-11T11:23:45.434Z,2.29
2018-12-11T11:26:15.341Z,2.19
2018-12-11T11:28:45.273Z,1.73
2018-12-11T11:31:15.148Z,1.50
2018-12-11T11:33:45.003Z,1.54
2018-12-11T11:36:14.869Z,1.68
2018-12-11T11:38:44.725Z,1.81
2018-12-11T11:41:14.559Z,1.86
2018-12-11T11:43:44.406Z,1.95
2018-12-11T11:46:14.217Z,2.00
2018-12-11T11:48:44.085Z,2.00
2018-12-11T11:51:14.173Z,2.20
2018-12-11T11:53:44.065Z,2.42
2018-12-11T11:56:13.912Z,2.71
2018-12-11T11:58:43.905Z,2.70
2018-12-11T12:01:13.934Z,2.77
2018-12-11T12:03:46.645Z,2.80
2018-12-11T12:06:16.504Z,2.92
2018-12-11T12:08:46.415Z,2.77
2018-12-11T12:11:16.235Z,2.61
2018-12-11T12:13:46.148Z,2.51
2018-12-11T12:16:16.370Z,2.44
2018-12-11T12:18:46.269Z,2.41
2018-12-11T12:21:16.222Z,2.37
2018-12-11T12:23:46.390Z,2.25
2018-12-11T12:26:16.259Z,2.04
2018-12-11T12:28:46.831Z,2.09
2018-12-11T12:31:17.842Z,1.94
2018-12-11T12:33:48.325Z,1.73
2018-12-11T12:36:18.554Z,1.78
2018-12-11T12:38:48.443Z,1.76
2018-12-11T12:41:18.552Z,1.76
2018-12-11T12:43:48.362Z,1.90
2018-12-11T12:46:18.467Z,2.00
2018-12-11T12:48:48.395Z,2.03
2018-12-11T12:51:18.617Z,2.09
2018-12-11T12:53:48.492Z,2.06
2018-12-11T12:56:18.384Z,2.11
2018-12-11T12:58:48.224Z,2.09
2018-12-11T13:01:18.112Z,2.20
2018-12-11T13:03:49.258Z,2.25
2018-12-11T13:06:19.336Z,2.30
2018-12-11T13:08:49.159Z,2.33
2018-12-11T13:11:19.166Z,2.22
2018-12-11T13:13:49.194Z,2.21
2018-12-11T13:16:19.091Z,2.05
2018-12-11T13:18:49.054Z,2.07
2018-12-11T13:21:18.896Z,2.00
2018-12-11T13:23:48.742Z,2.11
2018-12-11T13:26:18.801Z,2.04
2018-12-11T13:28:49.531Z,2.17
2018-12-11T13:31:19.351Z,1.99
2018-12-11T13:33:51.140Z,2.05
2018-12-11T13:36:21.015Z,2.17
2018-12-11T13:38:51.008Z,2.23
2018-12-11T13:41:20.840Z,2.31
2018-12-11T13:43:50.942Z,2.30
2018-12-11T13:46:20.841Z,2.38
2018-12-11T13:48:50.959Z,2.40
2018-12-11T13:51:20.801Z,2.45
2018-12-11T13:53:51.096Z,2.34
2018-12-11T13:56:21.112Z,2.20
2018-12-11T13:58:51.201Z,2.20
2018-12-11T14:01:21.182Z,2.28
2018-12-11T14:03:50.998Z,2.32
2018-12-11T14:06:20.868Z,2.42
2018-12-11T14:08:50.686Z,2.34
2018-12-11T14:11:20.553Z,2.25
2018-12-11T14:13:50.469Z,2.26
2018-12-11T14:16:20.332Z,2.29
2018-12-11T14:18:50.157Z,2.41
2018-12-11T14:21:20.260Z,2.19
2018-12-11T14:23:50.188Z,2.20
2018-12-11T14:26:20.072Z,2.26
2018-12-11T14:28:50.148Z,2.20
2018-12-11T14:31:20.024Z,2.20
2018-12-11T14:33:49.870Z,2.29
2018-12-11T14:36:19.745Z,2.33
2018-12-11T14:38:49.628Z,2.44
2018-12-11T14:41:20.072Z,2.41
2018-12-11T14:43:49.945Z,2.34
2018-12-11T14:46:19.873Z,2.27
2018-12-11T14:48:49.747Z,2.19
2018-12-11T14:51:20.233Z,2.23
2018-12-11T14:53:50.218Z,2.30
2018-12-11T14:56:20.071Z,2.32
2018-12-11T14:58:49.995Z,2.39
2018-12-11T15:01:19.873Z,2.38
2018-12-11T15:03:49.798Z,2.31
2018-12-11T15:06:19.813Z,2.26
2018-12-11T15:08:49.677Z,2.16
2018-12-11T15:11:19.726Z,2.17
2018-12-11T15:13:49.632Z,2.08
2018-12-11T15:16:19.892Z,2.05
2018-12-11T15:18:49.744Z,2.00
2018-12-11T15:21:19.627Z,1.95
2018-12-11T15:23:49.492Z,2.03
2018-12-11T15:26:19.367Z,2.04
2018-12-11T15:28:49.206Z,1.95
2018-12-11T15:31:19.729Z,1.86
2018-12-11T15:33:49.560Z,1.78
2018-12-11T15:36:19.507Z,1.67
2018-12-11T15:38:49.455Z,1.65
2018-12-11T15:41:19.360Z,1.64
2018-12-11T15:43:50.729Z,1.68
2018-12-11T15:46:21.424Z,1.73
2018-12-11T15:48:51.302Z,1.75
2018-12-11T15:51:21.338Z,1.72
2018-12-11T15:53:51.186Z,1.69
2018-12-11T15:56:21.129Z,1.75
2018-12-11T15:58:50.991Z,1.71
2018-12-11T16:01:20.895Z,1.71
2018-12-11T16:03:50.818Z,1.71
2018-12-11T16:06:20.810Z,1.68
2018-12-11T16:08:50.704Z,1.68
2018-12-11T16:11:20.773Z,1.80
2018-12-11T16:13:50.608Z,1.80
2018-12-11T16:16:20.491Z,1.76
2018-12-11T16:18:50.552Z,1.82
2018-12-11T16:21:20.431Z,1.79
2018-12-11T16:23:50.245Z,1.88
2018-12-11T16:26:20.178Z,1.85
2018-12-11T16:28:50.036Z,1.81
2018-12-11T16:31:20.197Z,1.79
2018-12-11T16:33:50.238Z,1.87
2018-12-11T16:36:20.153Z,1.92
2018-12-11T16:38:50.009Z,1.91
2018-12-11T16:41:19.919Z,1.86
2018-12-11T16:43:49.857Z,1.87
2018-12-11T16:46:19.846Z,1.94
2018-12-11T16:48:49.773Z,1.95
2018-12-11T16:51:19.744Z,2.01
2018-12-11T16:53:50.230Z,1.97
2018-12-11T16:56:20.342Z,1.96
2018-12-11T16:58:50.288Z,2.06
2018-12-11T17:01:20.226Z,2.08
2018-12-11T17:03:50.104Z,2.05
2018-12-11T17:06:20.101Z,2.06
2018-12-11T17:08:50.278Z,2.04
2018-12-11T17:11:20.138Z,2.00
2018-12-11T17:13:50.073Z,1.92
2018-12-11T17:16:20.177Z,1.93
2018-12-11T17:18:50.360Z,1.98
2018-12-11T17:21:20.331Z,2.01
2018-12-11T17:23:50.836Z,2.01
2018-12-11T17:26:20.975Z,2.04
2018-12-11T17:28:51.000Z,2.04
2018-12-11T17:31:20.991Z,2.05
2018-12-11T17:33:51.442Z,2.10
2018-12-11T17:36:21.365Z,2.14
2018-12-11T17:38:51.928Z,2.19
2018-12-11T17:41:22.275Z,2.16
2018-12-11T17:43:52.799Z,2.18
2018-12-11T17:46:23.085Z,2.20
2018-12-11T17:48:53.091Z,2.19
2018-12-11T17:51:22.949Z,2.14
2018-12-11T17:53:52.909Z,2.13
2018-12-11T17:56:22.834Z,2.15
2018-12-11T17:58:52.873Z,2.13
2018-12-11T18:01:25.580Z,2.14
2018-12-11T18:03:55.803Z,2.10
2018-12-11T18:06:25.742Z,2.18
2018-12-11T18:08:55.621Z,2.19
2018-12-11T18:11:25.790Z,2.17
2018-12-11T18:13:55.728Z,2.13
2018-12-11T18:16:25.676Z,2.15
2018-12-11T18:18:55.919Z,2.18
2018-12-11T18:21:26.542Z,2.18
2018-12-11T18:23:57.253Z,2.08
2018-12-11T18:26:27.227Z,2.09
2018-12-11T18:28:57.324Z,2.06
2018-12-11T18:31:27.494Z,2.08
2018-12-11T18:33:57.589Z,2.07
2018-12-11T18:36:28.205Z,2.03
2018-12-11T18:38:58.347Z,1.99
2018-12-11T18:41:28.730Z,1.99
2018-12-11T18:43:58.673Z,2.05
2018-12-11T18:46:28.762Z,2.00
2018-12-11T18:48:58.808Z,1.99
2018-12-11T18:51:28.771Z,1.84
2018-12-11T18:53:58.828Z,1.91
2018-12-11T18:56:28.795Z,1.90
2018-12-11T18:59:00.061Z,1.93
2018-12-11T19:01:30.718Z,1.97
2018-12-11T19:04:00.678Z,2.01
2018-12-11T19:06:30.663Z,1.97
2018-12-11T19:09:05.724Z,1.90
2018-12-11T19:11:33.006Z,1.92
2018-12-11T19:14:03.173Z,1.98
2018-12-11T19:16:33.232Z,1.99
2018-12-11T19:19:03.936Z,1.93
2018-12-11T19:21:34.075Z,1.95
2018-12-11T19:24:25.418Z,1.92
2018-12-11T19:26:56.145Z,1.89
2018-12-11T19:29:26.262Z,1.91
2018-12-11T19:31:57.648Z,1.92
2018-12-11T19:34:27.737Z,1.86
2018-12-11T19:36:57.743Z,1.90
2018-12-11T19:39:27.860Z,1.73
2018-12-11T19:41:57.890Z,1.68
2018-12-11T19:44:28.077Z,1.66
2018-12-11T19:53:02.479Z,1.75
2018-12-11T19:55:32.663Z,1.74
2018-12-11T19:58:02.626Z,1.84
2018-12-11T20:00:32.590Z,1.82
2018-12-11T20:03:02.561Z,1.80
2018-12-11T20:05:32.681Z,1.87
2018-12-11T20:08:02.720Z,1.83
2018-12-11T20:10:33.196Z,1.91
2018-12-11T20:13:03.793Z,1.87
2018-12-11T20:15:34.006Z,1.94
2018-12-11T20:18:04.219Z,2.00
2018-12-11T20:20:34.734Z,1.95
2018-12-11T20:23:04.993Z,1.96
2018-12-11T20:25:35.250Z,2.00
2018-12-11T20:28:05.383Z,1.98
2018-12-11T20:30:35.407Z,1.91
2018-12-11T20:33:05.582Z,1.88
2018-12-11T20:35:35.655Z,1.87
2018-12-11T20:38:05.630Z,1.74
2018-12-11T20:40:35.551Z,1.73
2018-12-11T20:43:06.046Z,1.76
2018-12-11T20:45:36.170Z,1.76
2018-12-11T20:48:06.211Z,1.78
2018-12-11T20:50:36.289Z,1.74
2018-12-11T20:53:06.306Z,1.75
2018-12-11T20:55:36.441Z,1.79
2018-12-11T20:58:07.502Z,1.80
2018-12-11T21:00:37.551Z,1.87
2018-12-11T21:03:08.296Z,1.92
2018-12-11T21:05:38.420Z,1.88
2018-12-11T21:08:08.747Z,1.89
2018-12-11T21:10:39.317Z,1.90
2018-12-11T21:13:09.937Z,1.80
2018-12-11T21:15:40.004Z,1.73
2018-12-11T21:18:10.614Z,1.82
2018-12-11T21:20:42.590Z,1.74
2018-12-11T21:23:12.768Z,1.76
2018-12-11T21:25:43.076Z,1.68
2018-12-11T21:28:13.490Z,1.74
2018-12-11T21:30:43.662Z,1.73
2018-12-11T21:33:13.873Z,1.79
2018-12-11T21:35:43.872Z,1.84
2018-12-11T21:38:14.084Z,1.86
2018-12-11T21:40:43.975Z,1.77
2018-12-11T21:43:14.506Z,1.81
2018-12-11T21:45:44.807Z,1.86
2018-12-11T21:48:14.852Z,1.78
2018-12-11T21:50:44.968Z,1.73
2018-12-11T21:53:15.214Z,1.79
2018-12-11T21:55:45.517Z,1.56
2018-12-11T21:58:17.457Z,1.60
2018-12-11T22:00:49.194Z,1.56
2018-12-11T22:03:19.230Z,1.51
2018-12-11T22:05:49.617Z,1.49
2018-12-11T22:08:20.229Z,1.50
2018-12-11T22:10:50.156Z,1.53
2018-12-11T22:13:20.477Z,1.49
2018-12-11T22:15:50.638Z,1.49
2018-12-11T22:18:20.592Z,1.54
2018-12-11T22:20:50.589Z,1.50
2018-12-11T22:23:20.595Z,1.54
2018-12-11T22:25:50.517Z,1.56
2018-12-11T22:28:20.388Z,1.56
2018-12-11T22:30:50.390Z,1.57
2018-12-11T22:33:20.353Z,1.59
2018-12-11T22:35:50.235Z,1.53
2018-12-11T22:38:20.166Z,1.54
2018-12-11T22:40:50.101Z,1.48
2018-12-11T22:43:20.309Z,1.47
2018-12-11T22:45:50.279Z,1.41
2018-12-11T22:48:20.310Z,1.39
2018-12-11T22:50:50.648Z,1.43
2018-12-11T22:53:20.619Z,1.41
2018-12-11T22:55:51.148Z,1.44
2018-12-11T22:58:21.400Z,1.36
2018-12-11T23:00:51.592Z,1.31
2018-12-11T23:03:22.714Z,1.21
2018-12-11T23:05:52.517Z,1.12
2018-12-11T23:08:22.489Z,1.22
2018-12-11T23:10:52.417Z,1.16
2018-12-11T23:13:22.229Z,1.19
2018-12-11T23:15:52.209Z,1.12
2018-12-11T23:18:22.760Z,1.13
2018-12-11T23:20:52.640Z,1.17
2018-12-11T23:23:22.581Z,1.23
2018-12-11T23:25:52.514Z,1.25
2018-12-11T23:28:22.593Z,1.24
2018-12-11T23:30:52.548Z,1.31
2018-12-11T23:33:22.407Z,1.31
2018-12-11T23:35:52.251Z,1.36
2018-12-11T23:38:22.108Z,1.35
2018-12-11T23:40:51.960Z,1.34
2018-12-11T23:43:21.845Z,1.27
2018-12-11T23:45:51.665Z,1.28
2018-12-11T23:48:21.549Z,1.28
2018-12-11T23:50:51.409Z,1.31
2018-12-11T23:53:21.330Z,1.18
2018-12-11T23:55:51.227Z,1.22
2018-12-11T23:58:21.138Z,1.28
